sensor_id;sensor_type;location;lat;lon;timestamp;temperature;humidity
36652;DHT22;53334;51.976;20.144;2023-04-24T00:00:12;26.80;46.10
36652;DHT22;53334;51.976;20.144;2023-04-24T00:02:48;26.80;46.00
36652;DHT22;53334;51.976;20.144;2023-04-24T00:05:23;26.80;46.10
36652;DHT22;53334;51.976;20.144;2023-04-24T00:07:56;26.80;46.00
36652;DHT22;53334;51.976;20.144;2023-04-24T00:10:29;26.70;45.90
36652;DHT22;53334;51.976;20.144;2023-04-24T00:13:03;26.70;45.90
36652;DHT22;53334;51.976;20.144;2023-04-24T00:15:36;26.80;45.90
36652;DHT22;53334;51.976;20.144;2023-04-24T00:18:11;26.70;45.70
36652;DHT22;53334;51.976;20.144;2023-04-24T00:20:44;26.70;45.80
36652;DHT22;53334;51.976;20.144;2023-04-24T00:23:18;26.80;45.70
36652;DHT22;53334;51.976;20.144;2023-04-24T00:25:51;26.70;45.60
36652;DHT22;53334;51.976;20.144;2023-04-24T00:28:25;26.70;45.60
36652;DHT22;53334;51.976;20.144;2023-04-24T00:30:58;26.70;45.60
36652;DHT22;53334;51.976;20.144;2023-04-24T00:33:32;26.70;45.60
36652;DHT22;53334;51.976;20.144;2023-04-24T00:36:06;26.70;45.60
36652;DHT22;53334;51.976;20.144;2023-04-24T00:38:40;26.70;45.50
36652;DHT22;53334;51.976;20.144;2023-04-24T00:41:13;26.80;45.60
36652;DHT22;53334;51.976;20.144;2023-04-24T00:43:46;26.70;45.50
36652;DHT22;53334;51.976;20.144;2023-04-24T00:46:20;26.70;45.50
36652;DHT22;53334;51.976;20.144;2023-04-24T00:48:56;26.70;45.40
36652;DHT22;53334;51.976;20.144;2023-04-24T00:51:29;26.70;45.30
36652;DHT22;53334;51.976;20.144;2023-04-24T00:54:02;26.70;45.20
36652;DHT22;53334;51.976;20.144;2023-04-24T00:56:36;26.70;45.20
36652;DHT22;53334;51.976;20.144;2023-04-24T00:59:09;26.70;45.20
36652;DHT22;53334;51.976;20.144;2023-04-24T01:01:43;26.70;45.10
36652;DHT22;53334;51.976;20.144;2023-04-24T01:04:18;26.70;45.10
36652;DHT22;53334;51.976;20.144;2023-04-24T01:06:53;26.70;45.00
36652;DHT22;53334;51.976;20.144;2023-04-24T01:09:27;26.80;45.00
36652;DHT22;53334;51.976;20.144;2023-04-24T01:12:02;26.70;45.00
36652;DHT22;53334;51.976;20.144;2023-04-24T01:14:36;26.70;44.90
36652;DHT22;53334;51.976;20.144;2023-04-24T01:17:10;26.70;44.90
36652;DHT22;53334;51.976;20.144;2023-04-24T01:19:45;26.70;44.90
36652;DHT22;53334;51.976;20.144;2023-04-24T01:22:20;26.70;44.90
36652;DHT22;53334;51.976;20.144;2023-04-24T01:24:53;26.70;44.80
36652;DHT22;53334;51.976;20.144;2023-04-24T01:27:26;26.70;44.90
36652;DHT22;53334;51.976;20.144;2023-04-24T01:30:00;26.70;44.80
36652;DHT22;53334;51.976;20.144;2023-04-24T01:32:36;26.70;44.80
36652;DHT22;53334;51.976;20.144;2023-04-24T01:35:10;26.80;44.90
36652;DHT22;53334;51.976;20.144;2023-04-24T01:37:45;26.70;44.80
36652;DHT22;53334;51.976;20.144;2023-04-24T01:40:18;26.70;44.80
36652;DHT22;53334;51.976;20.144;2023-04-24T01:42:51;26.70;44.70
36652;DHT22;53334;51.976;20.144;2023-04-24T01:45:25;26.70;44.70
36652;DHT22;53334;51.976;20.144;2023-04-24T01:47:58;26.70;44.70
36652;DHT22;53334;51.976;20.144;2023-04-24T01:50:33;26.70;44.70
36652;DHT22;53334;51.976;20.144;2023-04-24T01:53:09;26.70;44.70
36652;DHT22;53334;51.976;20.144;2023-04-24T01:55:43;26.70;44.70
36652;DHT22;53334;51.976;20.144;2023-04-24T01:58:17;26.70;44.60
36652;DHT22;53334;51.976;20.144;2023-04-24T02:00:51;26.70;44.70
36652;DHT22;53334;51.976;20.144;2023-04-24T02:03:25;26.70;44.70
36652;DHT22;53334;51.976;20.144;2023-04-24T02:06:01;26.70;44.70
36652;DHT22;53334;51.976;20.144;2023-04-24T02:08:36;26.70;44.70
36652;DHT22;53334;51.976;20.144;2023-04-24T02:11:11;26.70;44.70
36652;DHT22;53334;51.976;20.144;2023-04-24T02:13:44;26.70;44.60
36652;DHT22;53334;51.976;20.144;2023-04-24T02:16:17;26.70;44.60
36652;DHT22;53334;51.976;20.144;2023-04-24T02:18:50;26.70;44.60
36652;DHT22;53334;51.976;20.144;2023-04-24T02:21:24;26.70;45.20
36652;DHT22;53334;51.976;20.144;2023-04-24T02:23:58;26.70;44.50
36652;DHT22;53334;51.976;20.144;2023-04-24T02:26:31;26.70;44.40
36652;DHT22;53334;51.976;20.144;2023-04-24T02:29:05;26.70;44.40
36652;DHT22;53334;51.976;20.144;2023-04-24T02:31:38;26.70;44.30
36652;DHT22;53334;51.976;20.144;2023-04-24T02:34:11;26.70;44.30
36652;DHT22;53334;51.976;20.144;2023-04-24T02:36:44;26.70;44.30
36652;DHT22;53334;51.976;20.144;2023-04-24T02:39:20;26.70;44.30
36652;DHT22;53334;51.976;20.144;2023-04-24T02:41:54;26.70;44.20
36652;DHT22;53334;51.976;20.144;2023-04-24T02:44:27;26.70;44.20
36652;DHT22;53334;51.976;20.144;2023-04-24T02:47:00;26.70;44.20
36652;DHT22;53334;51.976;20.144;2023-04-24T02:49:35;26.70;44.20
36652;DHT22;53334;51.976;20.144;2023-04-24T02:52:08;26.70;44.10
36652;DHT22;53334;51.976;20.144;2023-04-24T02:54:43;26.70;44.10
36652;DHT22;53334;51.976;20.144;2023-04-24T02:57:17;26.70;44.10
36652;DHT22;53334;51.976;20.144;2023-04-24T02:59:50;26.70;44.10
36652;DHT22;53334;51.976;20.144;2023-04-24T03:02:23;26.70;44.10
36652;DHT22;53334;51.976;20.144;2023-04-24T03:04:57;26.70;44.10
36652;DHT22;53334;51.976;20.144;2023-04-24T03:07:30;26.70;44.10
36652;DHT22;53334;51.976;20.144;2023-04-24T03:10:06;26.70;44.60
36652;DHT22;53334;51.976;20.144;2023-04-24T03:12:39;26.70;44.10
36652;DHT22;53334;51.976;20.144;2023-04-24T03:15:12;26.70;44.10
36652;DHT22;53334;51.976;20.144;2023-04-24T03:17:46;26.70;44.00
36652;DHT22;53334;51.976;20.144;2023-04-24T03:20:20;26.70;43.90
36652;DHT22;53334;51.976;20.144;2023-04-24T03:22:53;26.70;43.90
36652;DHT22;53334;51.976;20.144;2023-04-24T03:25:28;26.70;44.10
36652;DHT22;53334;51.976;20.144;2023-04-24T03:28:01;26.70;43.90
36652;DHT22;53334;51.976;20.144;2023-04-24T03:30:49;26.70;44.50
36652;DHT22;53334;51.976;20.144;2023-04-24T03:33:24;26.70;44.40
36652;DHT22;53334;51.976;20.144;2023-04-24T03:36:07;26.70;43.80
36652;DHT22;53334;51.976;20.144;2023-04-24T03:38:44;26.70;43.70
36652;DHT22;53334;51.976;20.144;2023-04-24T03:41:48;26.70;43.70
36652;DHT22;53334;51.976;20.144;2023-04-24T03:44:26;26.60;43.50
36652;DHT22;53334;51.976;20.144;2023-04-24T03:46:59;26.60;43.50
36652;DHT22;53334;51.976;20.144;2023-04-24T03:49:33;26.60;43.50
36652;DHT22;53334;51.976;20.144;2023-04-24T03:52:06;26.70;43.40
36652;DHT22;53334;51.976;20.144;2023-04-24T03:54:40;26.60;43.40
36652;DHT22;53334;51.976;20.144;2023-04-24T03:57:15;26.60;43.40
36652;DHT22;53334;51.976;20.144;2023-04-24T03:59:59;26.60;43.40
36652;DHT22;53334;51.976;20.144;2023-04-24T04:02:34;26.70;43.40
36652;DHT22;53334;51.976;20.144;2023-04-24T04:05:08;26.70;43.30
36652;DHT22;53334;51.976;20.144;2023-04-24T04:07:41;26.60;43.20
36652;DHT22;53334;51.976;20.144;2023-04-24T04:10:14;26.60;43.20
36652;DHT22;53334;51.976;20.144;2023-04-24T04:12:50;26.60;43.30
36652;DHT22;53334;51.976;20.144;2023-04-24T04:15:23;26.60;43.10
36652;DHT22;53334;51.976;20.144;2023-04-24T04:17:57;26.60;43.20
36652;DHT22;53334;51.976;20.144;2023-04-24T04:20:30;26.60;43.30
36652;DHT22;53334;51.976;20.144;2023-04-24T04:23:03;26.60;43.20
36652;DHT22;53334;51.976;20.144;2023-04-24T04:25:46;26.60;43.20
36652;DHT22;53334;51.976;20.144;2023-04-24T04:28:23;26.60;43.20
36652;DHT22;53334;51.976;20.144;2023-04-24T04:30:56;26.60;43.20
36652;DHT22;53334;51.976;20.144;2023-04-24T04:33:30;26.60;43.30
36652;DHT22;53334;51.976;20.144;2023-04-24T04:36:04;26.60;43.20
36652;DHT22;53334;51.976;20.144;2023-04-24T04:38:42;26.60;43.50
36652;DHT22;53334;51.976;20.144;2023-04-24T04:41:46;26.60;43.20
36652;DHT22;53334;51.976;20.144;2023-04-24T04:44:24;26.60;43.30
36652;DHT22;53334;51.976;20.144;2023-04-24T04:47:00;26.60;43.30
36652;DHT22;53334;51.976;20.144;2023-04-24T04:49:37;26.60;43.20
36652;DHT22;53334;51.976;20.144;2023-04-24T04:52:17;26.60;43.20
36652;DHT22;53334;51.976;20.144;2023-04-24T04:54:55;26.60;43.20
36652;DHT22;53334;51.976;20.144;2023-04-24T04:57:35;26.60;43.10
36652;DHT22;53334;51.976;20.144;2023-04-24T05:00:11;26.60;43.10
36652;DHT22;53334;51.976;20.144;2023-04-24T05:02:52;26.70;43.20
36652;DHT22;53334;51.976;20.144;2023-04-24T05:05:27;26.70;43.20
36652;DHT22;53334;51.976;20.144;2023-04-24T05:08:00;26.60;43.00
36652;DHT22;53334;51.976;20.144;2023-04-24T05:10:36;26.70;43.10
36652;DHT22;53334;51.976;20.144;2023-04-24T05:13:10;26.70;43.20
36652;DHT22;53334;51.976;20.144;2023-04-24T05:15:46;26.70;43.20
36652;DHT22;53334;51.976;20.144;2023-04-24T05:18:20;26.70;43.10
36652;DHT22;53334;51.976;20.144;2023-04-24T05:20:53;26.70;43.00
36652;DHT22;53334;51.976;20.144;2023-04-24T05:23:28;26.70;43.10
36652;DHT22;53334;51.976;20.144;2023-04-24T05:26:02;26.70;43.70
36652;DHT22;53334;51.976;20.144;2023-04-24T05:28:38;26.70;43.20
36652;DHT22;53334;51.976;20.144;2023-04-24T05:31:17;26.70;43.30
36652;DHT22;53334;51.976;20.144;2023-04-24T05:33:50;26.70;43.40
36652;DHT22;53334;51.976;20.144;2023-04-24T05:36:23;26.70;43.50
36652;DHT22;53334;51.976;20.144;2023-04-24T05:38:57;26.70;43.60
36652;DHT22;53334;51.976;20.144;2023-04-24T05:41:30;26.70;43.60
36652;DHT22;53334;51.976;20.144;2023-04-24T05:44:03;26.70;43.70
36652;DHT22;53334;51.976;20.144;2023-04-24T05:46:38;26.70;43.90
36652;DHT22;53334;51.976;20.144;2023-04-24T05:49:12;26.70;44.00
36652;DHT22;53334;51.976;20.144;2023-04-24T05:51:46;26.80;44.10
36652;DHT22;53334;51.976;20.144;2023-04-24T05:54:20;26.70;44.10
36652;DHT22;53334;51.976;20.144;2023-04-24T05:56:54;26.80;44.20
36652;DHT22;53334;51.976;20.144;2023-04-24T05:59:38;26.80;44.70
36652;DHT22;53334;51.976;20.144;2023-04-24T06:02:13;26.80;45.60
36652;DHT22;53334;51.976;20.144;2023-04-24T06:04:47;26.80;45.60
36652;DHT22;53334;51.976;20.144;2023-04-24T06:07:22;26.80;45.60
36652;DHT22;53334;51.976;20.144;2023-04-24T06:09:55;26.80;45.50
36652;DHT22;53334;51.976;20.144;2023-04-24T06:12:29;26.80;45.30
36652;DHT22;53334;51.976;20.144;2023-04-24T06:15:07;26.80;45.00
36652;DHT22;53334;51.976;20.144;2023-04-24T06:18:00;26.80;44.80
36652;DHT22;53334;51.976;20.144;2023-04-24T06:20:34;26.80;45.30
36652;DHT22;53334;51.976;20.144;2023-04-24T06:23:08;26.80;44.70
36652;DHT22;53334;51.976;20.144;2023-04-24T06:25:41;26.80;44.70
36652;DHT22;53334;51.976;20.144;2023-04-24T06:28:16;26.80;44.60
36652;DHT22;53334;51.976;20.144;2023-04-24T06:30:49;26.80;44.40
36652;DHT22;53334;51.976;20.144;2023-04-24T06:33:24;26.80;44.30
36652;DHT22;53334;51.976;20.144;2023-04-24T06:35:57;26.80;44.30
36652;DHT22;53334;51.976;20.144;2023-04-24T06:38:30;26.80;44.50
36652;DHT22;53334;51.976;20.144;2023-04-24T06:41:04;26.80;44.80
36652;DHT22;53334;51.976;20.144;2023-04-24T06:43:37;26.80;45.10
36652;DHT22;53334;51.976;20.144;2023-04-24T06:46:10;26.90;45.00
36652;DHT22;53334;51.976;20.144;2023-04-24T06:48:45;26.90;44.90
36652;DHT22;53334;51.976;20.144;2023-04-24T06:51:18;26.90;44.80
36652;DHT22;53334;51.976;20.144;2023-04-24T06:53:52;26.90;44.70
36652;DHT22;53334;51.976;20.144;2023-04-24T06:56:25;26.90;44.70
36652;DHT22;53334;51.976;20.144;2023-04-24T06:59:00;26.90;44.60
36652;DHT22;53334;51.976;20.144;2023-04-24T07:01:33;26.90;44.50
36652;DHT22;53334;51.976;20.144;2023-04-24T07:04:08;26.90;44.40
36652;DHT22;53334;51.976;20.144;2023-04-24T07:06:42;26.90;44.40
36652;DHT22;53334;51.976;20.144;2023-04-24T07:09:15;26.90;44.60
36652;DHT22;53334;51.976;20.144;2023-04-24T07:11:50;26.90;45.00
36652;DHT22;53334;51.976;20.144;2023-04-24T07:14:23;26.90;45.00
36652;DHT22;53334;51.976;20.144;2023-04-24T07:16:57;26.90;45.00
36652;DHT22;53334;51.976;20.144;2023-04-24T07:19:33;26.90;44.90
36652;DHT22;53334;51.976;20.144;2023-04-24T07:22:07;26.90;44.80
36652;DHT22;53334;51.976;20.144;2023-04-24T07:24:40;26.90;44.80
36652;DHT22;53334;51.976;20.144;2023-04-24T07:27:13;26.90;44.60
36652;DHT22;53334;51.976;20.144;2023-04-24T07:29:47;27.00;44.60
36652;DHT22;53334;51.976;20.144;2023-04-24T07:32:21;27.00;44.40
36652;DHT22;53334;51.976;20.144;2023-04-24T07:34:55;27.00;44.40
36652;DHT22;53334;51.976;20.144;2023-04-24T07:37:29;27.00;44.20
36652;DHT22;53334;51.976;20.144;2023-04-24T07:40:02;27.00;41.40
36652;DHT22;53334;51.976;20.144;2023-04-24T07:42:36;27.00;40.70
36652;DHT22;53334;51.976;20.144;2023-04-24T07:45:10;26.90;41.20
36652;DHT22;53334;51.976;20.144;2023-04-24T07:47:43;26.90;41.60
36652;DHT22;53334;51.976;20.144;2023-04-24T07:50:19;26.90;41.80
36652;DHT22;53334;51.976;20.144;2023-04-24T07:52:52;26.90;42.00
36652;DHT22;53334;51.976;20.144;2023-04-24T07:55:25;26.90;42.40
36652;DHT22;53334;51.976;20.144;2023-04-24T07:57:59;26.90;42.50
36652;DHT22;53334;51.976;20.144;2023-04-24T08:00:32;26.90;42.50
36652;DHT22;53334;51.976;20.144;2023-04-24T08:03:06;26.80;42.60
36652;DHT22;53334;51.976;20.144;2023-04-24T08:05:41;26.80;42.70
36652;DHT22;53334;51.976;20.144;2023-04-24T08:08:15;26.80;42.70
36652;DHT22;53334;51.976;20.144;2023-04-24T08:10:48;26.80;42.10
36652;DHT22;53334;51.976;20.144;2023-04-24T08:13:22;26.80;41.60
36652;DHT22;53334;51.976;20.144;2023-04-24T08:15:56;26.80;41.20
36652;DHT22;53334;51.976;20.144;2023-04-24T08:18:29;26.80;41.30
36652;DHT22;53334;51.976;20.144;2023-04-24T08:21:05;26.80;41.30
36652;DHT22;53334;51.976;20.144;2023-04-24T08:23:38;26.80;41.10
36652;DHT22;53334;51.976;20.144;2023-04-24T08:26:12;26.80;41.00
36652;DHT22;53334;51.976;20.144;2023-04-24T08:28:45;26.80;40.80
36652;DHT22;53334;51.976;20.144;2023-04-24T08:31:19;26.80;40.70
36652;DHT22;53334;51.976;20.144;2023-04-24T08:33:52;26.80;40.60
36652;DHT22;53334;51.976;20.144;2023-04-24T08:36:27;26.80;40.50
36652;DHT22;53334;51.976;20.144;2023-04-24T08:39:17;26.80;40.70
36652;DHT22;53334;51.976;20.144;2023-04-24T08:41:50;26.80;40.60
36652;DHT22;53334;51.976;20.144;2023-04-24T08:44:25;26.80;40.50
36652;DHT22;53334;51.976;20.144;2023-04-24T08:46:58;26.80;40.60
36652;DHT22;53334;51.976;20.144;2023-04-24T08:49:31;26.80;40.70
36652;DHT22;53334;51.976;20.144;2023-04-24T08:52:07;26.80;40.60
36652;DHT22;53334;51.976;20.144;2023-04-24T08:54:42;26.80;40.50
36652;DHT22;53334;51.976;20.144;2023-04-24T08:57:17;26.80;40.40
36652;DHT22;53334;51.976;20.144;2023-04-24T08:59:51;26.80;40.40
36652;DHT22;53334;51.976;20.144;2023-04-24T09:02:25;26.80;40.30
36652;DHT22;53334;51.976;20.144;2023-04-24T09:04:59;26.80;40.50
36652;DHT22;53334;51.976;20.144;2023-04-24T09:07:35;26.80;41.40
36652;DHT22;53334;51.976;20.144;2023-04-24T09:10:09;26.80;40.80
36652;DHT22;53334;51.976;20.144;2023-04-24T09:12:44;26.80;41.30
36652;DHT22;53334;51.976;20.144;2023-04-24T09:15:18;26.80;41.70
36652;DHT22;53334;51.976;20.144;2023-04-24T09:17:52;26.80;41.90
36652;DHT22;53334;51.976;20.144;2023-04-24T09:20:25;26.80;41.50
36652;DHT22;53334;51.976;20.144;2023-04-24T09:23:00;26.80;41.20
36652;DHT22;53334;51.976;20.144;2023-04-24T09:25:34;26.80;41.00
36652;DHT22;53334;51.976;20.144;2023-04-24T09:28:08;26.80;41.10
36652;DHT22;53334;51.976;20.144;2023-04-24T09:30:41;26.80;41.10
36652;DHT22;53334;51.976;20.144;2023-04-24T09:33:15;26.70;40.90
36652;DHT22;53334;51.976;20.144;2023-04-24T09:35:49;26.60;40.70
36652;DHT22;53334;51.976;20.144;2023-04-24T09:38:32;26.60;40.50
36652;DHT22;53334;51.976;20.144;2023-04-24T09:41:08;26.60;40.10
36652;DHT22;53334;51.976;20.144;2023-04-24T09:43:41;26.50;39.80
36652;DHT22;53334;51.976;20.144;2023-04-24T09:46:18;26.50;39.40
36652;DHT22;53334;51.976;20.144;2023-04-24T09:48:53;26.40;39.10
36652;DHT22;53334;51.976;20.144;2023-04-24T09:51:34;26.40;38.90
36652;DHT22;53334;51.976;20.144;2023-04-24T09:54:15;26.30;38.60
36652;DHT22;53334;51.976;20.144;2023-04-24T09:56:50;26.30;38.60
36652;DHT22;53334;51.976;20.144;2023-04-24T09:59:23;26.30;38.90
36652;DHT22;53334;51.976;20.144;2023-04-24T10:01:56;26.30;39.00
36652;DHT22;53334;51.976;20.144;2023-04-24T10:04:31;26.20;39.00
36652;DHT22;53334;51.976;20.144;2023-04-24T10:07:05;26.20;39.00
36652;DHT22;53334;51.976;20.144;2023-04-24T10:09:42;26.20;39.20
36652;DHT22;53334;51.976;20.144;2023-04-24T10:12:16;26.10;39.20
36652;DHT22;53334;51.976;20.144;2023-04-24T10:14:50;26.10;39.20
36652;DHT22;53334;51.976;20.144;2023-04-24T10:17:25;26.10;39.20
36652;DHT22;53334;51.976;20.144;2023-04-24T10:19:59;26.00;39.10
36652;DHT22;53334;51.976;20.144;2023-04-24T10:22:33;26.00;39.40
36652;DHT22;53334;51.976;20.144;2023-04-24T10:25:09;26.00;39.60
36652;DHT22;53334;51.976;20.144;2023-04-24T10:27:43;26.00;39.80
36652;DHT22;53334;51.976;20.144;2023-04-24T10:30:16;26.00;39.60
36652;DHT22;53334;51.976;20.144;2023-04-24T10:32:50;26.00;39.60
36652;DHT22;53334;51.976;20.144;2023-04-24T10:35:23;26.00;39.80
36652;DHT22;53334;51.976;20.144;2023-04-24T10:38:02;26.00;39.90
36652;DHT22;53334;51.976;20.144;2023-04-24T10:40:37;26.00;39.60
36652;DHT22;53334;51.976;20.144;2023-04-24T10:43:10;25.90;39.60
36652;DHT22;53334;51.976;20.144;2023-04-24T10:46:03;25.90;39.60
36652;DHT22;53334;51.976;20.144;2023-04-24T10:48:42;25.90;39.80
36652;DHT22;53334;51.976;20.144;2023-04-24T10:51:16;25.90;40.30
36652;DHT22;53334;51.976;20.144;2023-04-24T10:53:50;25.90;39.50
36652;DHT22;53334;51.976;20.144;2023-04-24T10:56:24;25.90;39.80
36652;DHT22;53334;51.976;20.144;2023-04-24T10:58:58;25.90;40.20
36652;DHT22;53334;51.976;20.144;2023-04-24T11:01:32;25.90;39.80
36652;DHT22;53334;51.976;20.144;2023-04-24T11:04:05;25.90;39.80
36652;DHT22;53334;51.976;20.144;2023-04-24T11:06:40;25.90;39.70
36652;DHT22;53334;51.976;20.144;2023-04-24T11:09:15;25.90;39.50
36652;DHT22;53334;51.976;20.144;2023-04-24T11:11:49;25.90;39.90
36652;DHT22;53334;51.976;20.144;2023-04-24T11:14:23;25.90;39.60
36652;DHT22;53334;51.976;20.144;2023-04-24T11:16:56;25.90;39.50
36652;DHT22;53334;51.976;20.144;2023-04-24T11:19:30;25.90;39.80
36652;DHT22;53334;51.976;20.144;2023-04-24T11:22:04;25.90;39.60
36652;DHT22;53334;51.976;20.144;2023-04-24T11:24:39;25.90;39.70
36652;DHT22;53334;51.976;20.144;2023-04-24T11:27:22;25.80;39.70
36652;DHT22;53334;51.976;20.144;2023-04-24T11:29:59;25.80;39.70
36652;DHT22;53334;51.976;20.144;2023-04-24T11:32:37;25.80;39.60
36652;DHT22;53334;51.976;20.144;2023-04-24T11:35:14;25.80;39.60
36652;DHT22;53334;51.976;20.144;2023-04-24T11:37:49;25.80;39.60
36652;DHT22;53334;51.976;20.144;2023-04-24T11:40:26;25.80;39.60
36652;DHT22;53334;51.976;20.144;2023-04-24T11:43:00;25.80;39.70
36652;DHT22;53334;51.976;20.144;2023-04-24T11:45:34;25.80;39.70
36652;DHT22;53334;51.976;20.144;2023-04-24T11:48:07;25.80;40.10
36652;DHT22;53334;51.976;20.144;2023-04-24T11:50:46;25.80;40.30
36652;DHT22;53334;51.976;20.144;2023-04-24T11:53:20;25.80;40.30
36652;DHT22;53334;51.976;20.144;2023-04-24T11:55:54;25.80;40.30
36652;DHT22;53334;51.976;20.144;2023-04-24T11:58:28;25.80;40.40
36652;DHT22;53334;51.976;20.144;2023-04-24T12:01:07;25.80;40.60
36652;DHT22;53334;51.976;20.144;2023-04-24T12:03:41;25.80;40.80
36652;DHT22;53334;51.976;20.144;2023-04-24T12:06:16;25.80;40.90
36652;DHT22;53334;51.976;20.144;2023-04-24T12:08:52;25.80;41.00
36652;DHT22;53334;51.976;20.144;2023-04-24T12:11:35;25.80;40.80
36652;DHT22;53334;51.976;20.144;2023-04-24T12:14:13;25.80;40.80
36652;DHT22;53334;51.976;20.144;2023-04-24T12:16:47;25.90;40.90
36652;DHT22;53334;51.976;20.144;2023-04-24T12:19:21;25.90;40.80
36652;DHT22;53334;51.976;20.144;2023-04-24T12:22:00;25.90;40.00
36652;DHT22;53334;51.976;20.144;2023-04-24T12:24:34;25.80;41.10
36652;DHT22;53334;51.976;20.144;2023-04-24T12:27:19;25.90;40.50
36652;DHT22;53334;51.976;20.144;2023-04-24T12:29:56;25.90;40.90
36652;DHT22;53334;51.976;20.144;2023-04-24T12:32:29;25.90;41.30
36652;DHT22;53334;51.976;20.144;2023-04-24T12:35:04;25.90;41.50
36652;DHT22;53334;51.976;20.144;2023-04-24T12:37:41;25.90;42.10
36652;DHT22;53334;51.976;20.144;2023-04-24T12:40:19;25.90;42.50
36652;DHT22;53334;51.976;20.144;2023-04-24T12:42:53;25.90;44.10
36652;DHT22;53334;51.976;20.144;2023-04-24T12:45:30;25.90;45.40
36652;DHT22;53334;51.976;20.144;2023-04-24T12:48:04;25.90;44.50
36652;DHT22;53334;51.976;20.144;2023-04-24T12:50:38;25.90;44.60
36652;DHT22;53334;51.976;20.144;2023-04-24T12:53:11;25.90;44.40
36652;DHT22;53334;51.976;20.144;2023-04-24T12:55:44;25.90;44.70
36652;DHT22;53334;51.976;20.144;2023-04-24T12:58:19;26.00;44.80
36652;DHT22;53334;51.976;20.144;2023-04-24T13:00:54;25.90;44.60
36652;DHT22;53334;51.976;20.144;2023-04-24T13:03:27;25.90;44.70
36652;DHT22;53334;51.976;20.144;2023-04-24T13:06:01;26.00;44.80
36652;DHT22;53334;51.976;20.144;2023-04-24T13:08:34;26.00;44.80
36652;DHT22;53334;51.976;20.144;2023-04-24T13:11:07;26.00;44.80
36652;DHT22;53334;51.976;20.144;2023-04-24T13:13:41;26.00;44.70
36652;DHT22;53334;51.976;20.144;2023-04-24T13:16:15;25.90;44.70
36652;DHT22;53334;51.976;20.144;2023-04-24T13:18:49;26.00;44.80
36652;DHT22;53334;51.976;20.144;2023-04-24T13:21:22;26.00;44.80
36652;DHT22;53334;51.976;20.144;2023-04-24T13:23:55;26.00;44.90
36652;DHT22;53334;51.976;20.144;2023-04-24T13:26:29;26.00;45.00
36652;DHT22;53334;51.976;20.144;2023-04-24T13:29:02;26.00;45.10
36652;DHT22;53334;51.976;20.144;2023-04-24T13:31:37;26.00;45.20
36652;DHT22;53334;51.976;20.144;2023-04-24T13:34:10;26.00;45.30
36652;DHT22;53334;51.976;20.144;2023-04-24T13:36:44;26.00;45.50
36652;DHT22;53334;51.976;20.144;2023-04-24T13:39:17;26.00;45.40
36652;DHT22;53334;51.976;20.144;2023-04-24T13:41:51;26.00;45.40
36652;DHT22;53334;51.976;20.144;2023-04-24T13:44:24;26.10;45.80
36652;DHT22;53334;51.976;20.144;2023-04-24T13:47:00;26.10;46.00
36652;DHT22;53334;51.976;20.144;2023-04-24T13:49:33;26.10;46.30
36652;DHT22;53334;51.976;20.144;2023-04-24T13:52:07;26.10;46.30
36652;DHT22;53334;51.976;20.144;2023-04-24T13:54:42;26.10;46.30
36652;DHT22;53334;51.976;20.144;2023-04-24T13:57:15;26.10;46.50
36652;DHT22;53334;51.976;20.144;2023-04-24T13:59:49;26.10;46.50
36652;DHT22;53334;51.976;20.144;2023-04-24T14:02:24;26.10;46.50
36652;DHT22;53334;51.976;20.144;2023-04-24T14:04:57;26.10;46.50
36652;DHT22;53334;51.976;20.144;2023-04-24T14:07:31;26.10;47.30
36652;DHT22;53334;51.976;20.144;2023-04-24T14:10:05;26.20;46.90
36652;DHT22;53334;51.976;20.144;2023-04-24T14:12:39;26.20;46.90
36652;DHT22;53334;51.976;20.144;2023-04-24T14:15:12;26.20;46.90
36652;DHT22;53334;51.976;20.144;2023-04-24T14:17:47;26.20;47.00
36652;DHT22;53334;51.976;20.144;2023-04-24T14:20:21;26.20;47.00
36652;DHT22;53334;51.976;20.144;2023-04-24T14:22:54;26.20;47.00
36652;DHT22;53334;51.976;20.144;2023-04-24T14:25:30;26.20;46.90
36652;DHT22;53334;51.976;20.144;2023-04-24T14:28:03;26.20;46.80
36652;DHT22;53334;51.976;20.144;2023-04-24T14:30:38;26.20;46.70
36652;DHT22;53334;51.976;20.144;2023-04-24T14:33:14;26.20;46.70
36652;DHT22;53334;51.976;20.144;2023-04-24T14:35:48;26.20;46.50
36652;DHT22;53334;51.976;20.144;2023-04-24T14:38:22;26.20;46.40
36652;DHT22;53334;51.976;20.144;2023-04-24T14:40:55;26.20;47.20
36652;DHT22;53334;51.976;20.144;2023-04-24T14:43:39;26.20;46.50
36652;DHT22;53334;51.976;20.144;2023-04-24T14:46:12;26.20;47.30
36652;DHT22;53334;51.976;20.144;2023-04-24T14:48:47;26.20;48.30
36652;DHT22;53334;51.976;20.144;2023-04-24T14:51:20;26.20;48.70
36652;DHT22;53334;51.976;20.144;2023-04-24T14:53:54;26.20;48.90
36652;DHT22;53334;51.976;20.144;2023-04-24T14:56:27;26.20;48.60
36652;DHT22;53334;51.976;20.144;2023-04-24T14:59:00;26.20;48.50
36652;DHT22;53334;51.976;20.144;2023-04-24T15:01:33;26.20;48.10
36652;DHT22;53334;51.976;20.144;2023-04-24T15:04:08;26.20;47.90
36652;DHT22;53334;51.976;20.144;2023-04-24T15:06:42;26.20;47.70
36652;DHT22;53334;51.976;20.144;2023-04-24T15:09:15;26.20;47.60
36652;DHT22;53334;51.976;20.144;2023-04-24T15:11:48;26.20;47.50
36652;DHT22;53334;51.976;20.144;2023-04-24T15:14:22;26.20;47.40
36652;DHT22;53334;51.976;20.144;2023-04-24T15:16:55;26.20;47.40
36652;DHT22;53334;51.976;20.144;2023-04-24T15:19:31;26.20;47.70
36652;DHT22;53334;51.976;20.144;2023-04-24T15:22:05;26.20;47.70
36652;DHT22;53334;51.976;20.144;2023-04-24T15:24:38;26.20;47.60
36652;DHT22;53334;51.976;20.144;2023-04-24T15:27:11;26.20;47.50
36652;DHT22;53334;51.976;20.144;2023-04-24T15:29:44;26.20;47.30
36652;DHT22;53334;51.976;20.144;2023-04-24T15:32:18;26.20;47.30
36652;DHT22;53334;51.976;20.144;2023-04-24T15:34:52;26.20;47.40
36652;DHT22;53334;51.976;20.144;2023-04-24T15:37:39;26.20;47.30
36652;DHT22;53334;51.976;20.144;2023-04-24T15:40:13;26.20;47.20
36652;DHT22;53334;51.976;20.144;2023-04-24T15:42:47;26.30;47.20
36652;DHT22;53334;51.976;20.144;2023-04-24T15:45:20;26.20;47.00
36652;DHT22;53334;51.976;20.144;2023-04-24T15:47:53;26.20;46.90
36652;DHT22;53334;51.976;20.144;2023-04-24T15:50:28;26.20;46.80
36652;DHT22;53334;51.976;20.144;2023-04-24T15:53:01;26.20;46.60
36652;DHT22;53334;51.976;20.144;2023-04-24T15:55:34;26.30;46.50
36652;DHT22;53334;51.976;20.144;2023-04-24T15:58:08;26.30;46.20
36652;DHT22;53334;51.976;20.144;2023-04-24T16:00:41;26.30;45.90